Tiempo atmosférico en la estación meteorológica de Madridejos, Toledo (690 m.)



Fecha
DESCASC
Temp. máxima en grados centígrados (hora)
DESCASC
Temp. mínima en grados centígrados (hora)
DESCASC
Temp. media en grados centígrados
DESCASC
Racha de viento máxima en m/sg (hora)
DESCASC
Velocidad máxima media en intervalos de 10 minutos(hora)
DESCASC
Precipitaciones diarias en mm
DESCASC
Precipitaciones de 00:00 a 06:00 en mm
DESCASC
Precipitaciones de 06:00 a 12:00 en mm
DESCASC
Precipitaciones de 12:00 a 18:00 en mm
DESCASC
Precipitaciones de 18:00 a 24:00 en mm
DESCASC
06-07-2020 36.9 (18:40) 17.6 (07:40) 27.3 9.72 (16:00) 4.17 (15:50) 0 0 0 0 0
05-07-2020 35.9 (18:50) 18.2 (07:40) 27.1 8.61 (01:50) 4.44 (00:10) 0 0 0 0 0
04-07-2020 34.4 (19:00) 14.4 (07:20) 24.4 8.33 (11:00) 3.89 (08:30) 0 0 0 0 0
03-07-2020 32.5 (18:40) 15.1 (07:00) 23.8 9.72 (10:50) 4.72 (05:20) 0 0 0 0 0
02-07-2020 32.9 (15:50) 18.4 (00:00) 25.7 15 (16:00) 7.78 (16:10) 0 0 0 0 0
01-07-2020 35.5 (17:20) 20.7 (00:00) 28.1 16.39 (19:30) 7.78 (12:10) 0 0 0 0 0
30-06-2020 38.2 (16:50) 19.1 (00:00) 28.7 12.5 (18:50) 7.22 (18:00) 0 0 0 0 0
29-06-2020 37 (18:30) 19.2 (00:00) 28.1 11.11 (16:20) 4.17 (16:20) 0 0 0 0 0
28-06-2020 35.1 (17:30) 17.5 (00:00) 26.3 8.61 (18:00) 4.44 (06:50) 0 0 0 0 0
27-06-2020 32.8 (18:30) 14.4 (00:00) 23.6 14.17 (15:00) 4.44 (20:40) 0 0 0 0 0
26-06-2020 31.7 (16:20) 17.6 (00:00) 24.7 11.67 (16:10) 6.67 (20:00) 0 0 0 0 0
25-06-2020 34.7 (17:00) 18 (00:00) 26.4 11.11 (16:30) 5.28 (18:30) 0 0 0 0 0
24-06-2020 31.5 (19:00) 18.8 (00:00) 25.1 10.28 (08:40) 6.11 (02:40) 9.4 3.2 5 1.2 0
23-06-2020 36.2 (18:30) 17.8 (00:00) 27 9.44 (17:30) 5.83 (02:50) 0 0 0 0 0
22-06-2020 36 (17:20) 15.4 (00:00) 25.7 8.89 (10:40) 4.17 (04:20) 0 0 0 0 0
21-06-2020 34.4 (17:00) 15.2 (00:00) 24.8 10.56 (17:10) 5.28 (17:10) 0 0 0 0 0
20-06-2020 32.5 (17:00) 14.2 (00:00) 23.3 13.89 (19:20) 5.83 (20:10) 0 0 0 0 0
19-06-2020 30.4 (18:20) 14.1 (00:00) 22.3 11.67 (19:20) 5.28 (15:00) 0 0 0 0 0
18-06-2020 29.2 (16:50) 11.1 (07:00) 20.2 10 (19:50) 5.28 (19:20) 0 0 0 0 0
17-06-2020 26.7 (18:50) 11.5 (00:00) 19.1 10.83 (19:10) 5.56 (17:50) 0 0 0 0 0
16-06-2020 27.6 (16:50) 13 (00:00) 20.3 13.33 (17:50) 7.5 (18:30) 0 0 0 0 0
15-06-2020 28 (17:20) 12.6 (00:00) 20.3 13.61 (13:30) 6.94 (15:30) 0 0 0 0 0
14-06-2020 26.4 (17:40) 10 (00:00) 18.2 12.22 (12:40) 5.56 (15:50) 0 0 0 0 0
13-06-2020 23.9 (17:30) 9.5 (00:00) 16.7 10.83 (10:50) 5.56 (17:50) 0 0 0 0 0
12-06-2020 20.3 (18:20) 10.2 (00:00) 15.2 16.94 (00:30) 9.72 (00:40) 0 0 0 0 0
11-06-2020 25.4 (16:00) 14 (00:00) 19.7 19.17 (18:20) 11.94 (18:20) 0 0 0 0 0
10-06-2020 27.6 (17:30) 8.6 (00:00) 18.1 11.67 (17:30) 6.11 (19:30) 0 0 0 0 0

Gráficas

Temp. máximas Temp. mínimas Temp. medias Precipitaciones Rachas de viento máximas Velocidades máximas media en intervalos de 10 minutos

Datos horarios

Fecha y hora oficial Temperatura (ºC) Velocidad del viento (km/h) Dirección del viento Racha (km/h) Dirección de racha Precipitación (mm) Presión (hPa) Tendencia (hPa) Humedad (%)
2020-07-09 23:00:00 22.5 24 Este 36 Nordeste 0 937.2 2.7 38
2020-07-09 22:00:00 23.5 23 Nordeste 54 Este 0 937.1 2.9 33
2020-07-09 21:00:00 27.1 26 Este 50 Este 0 935.4 -- 19
2020-07-09 20:00:00 30.4 22 Este 49 Este 0 934.5 -- 20
2020-07-09 19:00:00 32 21 Este 41 Este 0 934.2 -- 20
2020-07-09 18:00:00 33.6 9 Sudeste 27 Este 0 934.4 -- 12
2020-07-09 17:00:00 33.3 11 Sudeste 38 Este 0 935.3 -- 13
2020-07-09 16:00:00 33.2 16 Sudeste 39 Este 0 936 -- 14
2020-07-09 15:00:00 32.1 12 Sudeste 36 Sudeste 0 936.5 -- 15
2020-07-09 14:00:00 31.1 13 Sudeste 24 Este 0 937 -- 19
2020-07-09 13:00:00 30.6 8 Sudeste 22 Sudeste 0 937.5 -- 20
2020-07-09 12:00:00 29.1 5 Oeste 12 Sudoeste 0 937.7 -- 21
2020-07-09 11:00:00 27.6 3 Sur 9 Sudoeste 0 938 -- 25
2020-07-09 10:00:00 24.8 4 Sudoeste 9 Sudoeste 0 938 -- 33
2020-07-09 09:00:00 21.7 2 Sudeste 18 Este 0 937.4 -- 47
2020-07-09 08:00:00 19.3 4 Nordeste 19 Sudoeste 0 937 -- 58
2020-07-09 07:00:00 17.9 2 Sudeste 25 Este 0 936.5 -- 63
2020-07-09 06:00:00 18.7 10 Sudeste 25 Sudeste 0 936 -- 62
2020-07-09 05:00:00 19.7 6 Este 19 Este 0 935.8 -- 63
2020-07-09 04:00:00 21.5 6 Sudeste 30 Este 0 935.4 -- 57
2020-07-09 03:00:00 23.2 10 Sudeste 45 Sudeste 0 935.8 -- 51
2020-07-09 02:00:00 24.7 22 Sudeste 44 Sudeste 0 935.8 -- 45
2020-07-09 01:00:00 25.5 22 Sudeste 50 Este 0 935.9 -- 45
2020-07-09 00:00:00 25.8 25 Sudeste 54 Sudeste 0 935.5 -- 45
2020-07-08 23:00:00 26.8 32 Sudeste 61 Sudeste 0 934.8 -- 38
2020-07-08 22:00:00 27.7 27 Este 53 Este 0 934.1 -- 31
2020-07-08 21:00:00 28.9 25 Sudeste 69 Este 0 933.4 -- 30
2020-07-08 20:00:00 29.7 32 Este 62 Sudeste 0 933.7 -- 29
2020-07-08 19:00:00 29.9 19 Este 61 Este 0 934.4 -- 30
2020-07-08 18:00:00 32.2 24 Sudeste 46 Sudeste 0 935 -- 22
2020-07-08 17:00:00 34.2 20 Sudeste 38 Sudeste 0 934 -- 20
2020-07-08 16:00:00 35 9 Sudeste 51 Sudeste 0 934.2 -- 17
2020-07-08 15:00:00 33.1 26 Sudeste 45 Este 0 934.7 -- 27
2020-07-08 14:00:00 32.3 23 Este 40 Este 0 935.1 -- 24
2020-07-08 13:00:00 29.5 23 Este 41 Este 0 935.5 -- 32
2020-07-08 12:00:00 29.1 23 Este 43 Este 0 936.1 -- 30
2020-07-08 11:00:00 27.4 27 Este 44 Este 0 936.2 -- 35
2020-07-08 10:00:00 24.3 23 Nordeste 33 Este 0 936.3 -- 45
2020-07-08 09:00:00 23 15 Sudeste 35 Sudeste 0 936 -- 49
2020-07-08 08:00:00 22.3 6 Sudeste 33 Este 0 935.6 -- 50
2020-07-08 07:00:00 22.6 17 Este 46 Sudeste 0 934.5 -- 50
2020-07-08 06:00:00 23.2 3 Nordeste 33 Sudoeste 0 936 -- 51
2020-07-08 05:00:00 23.2 12 Este 33 Este 0 935.5 -- 53
2020-07-08 04:00:00 24.1 12 Sudeste 36 Este 0 935.4 -- 49
2020-07-08 03:00:00 24.2 3 Sudoeste 10 Oeste 0 935.3 -- 18
2020-07-08 02:00:00 25.3 9 Oeste 12 Oeste 0 935.6 -- 17
2020-07-08 01:00:00 26.8 5 Oeste 14 Sudoeste 0 936 -- 15
2020-07-08 00:00:00 28.2 9 Sudoeste 18 Sudoeste 0 936 -- 13
2020-07-07 23:00:00 29.9 13 Sudoeste 18 Sudoeste 0 935.9 -- 12
2020-07-07 22:00:00 32.8 12 Oeste 26 Oeste 0 935.2 -- 10
2020-07-07 21:00:00 35.8 10 Oeste 40 Sudoeste 0 934.9 -- 9
2020-07-07 20:00:00 37.3 17 Oeste 37 Oeste 0 934.7 -0.5 8
2020-07-07 19:00:00 38.2 24 Oeste 44 Oeste 0 934.7 -0.8 9
2020-07-07 18:00:00 39.1 16 Oeste 43 Oeste 0 934.9 -1.3 10
2020-07-07 17:00:00 38.1 14 Noroeste 41 Oeste 0 935.2 -1.5 12
2020-07-07 16:00:00 37.7 6 Sudeste 23 Noroeste 0 935.5 -1.6 13
2020-07-07 15:00:00 36.6 7 Oeste 23 Norte 0 936.2 -1.3 15
2020-07-07 14:00:00 35.3 6 Oeste 18 Oeste 0 936.7 -0.8 16
2020-07-07 13:00:00 33.3 9 Este 21 Este 0 937.1 -0.5 23
2020-07-07 12:00:00 30.8 9 Este 17 Este 0 937.5 0.1 26
2020-07-07 11:00:00 29.2 4 Este 15 Este 0 937.5 0.2 27
2020-07-07 10:00:00 26.4 4 Nordeste 12 Nordeste 0 937.6 0.6 33
2020-07-07 09:00:00 24.2 2 Noroeste 19 Oeste 0 937.4 0.7 39
2020-07-07 08:00:00 19.5 5 Noroeste 21 Oeste 0 937.3 0.7 46
2020-07-07 07:00:00 18.9 5 Noroeste 21 Oeste 0 937 -- 45
2020-07-07 06:00:00 21.3 3 Este 9 Nordeste 0 936.7 -- 45
2020-07-07 05:00:00 21.9 6 Nordeste 12 Noroeste 0 936.6 -- 42
2020-07-07 04:00:00 22.2 3 Norte 28 Este 0 936.8 -- 38
2020-07-07 03:00:00 22.8 17 Este 31 Este 0 936.7 -- 32
2020-07-07 02:00:00 23.9 10 Noroeste 17 Oeste 0 936.4 -- 28
2020-07-07 01:00:00 25 8 Oeste 13 Oeste 0 936.4 -- 25
2020-07-07 00:00:00 27.9 8 Sudoeste 12 Sur 0 936.4 -- 21
2020-07-06 23:00:00 29.8 4 Noroeste 6 Noroeste 0 936.3 -- 19
2020-07-06 22:00:00 32.9 3 Nordeste 20 Norte 0 935.8 -- 15
2020-07-06 21:00:00 35.1 7 Norte 22 Noroeste 0 935.5 -- 13
2020-07-06 20:00:00 36.1 8 Noroeste 30 Norte 0 935.7 -- 12
2020-07-06 19:00:00 36.7 11 Noroeste 31 Noroeste 0 936 -- 12
2020-07-06 18:00:00 35.7 11 Norte 28 Norte 0 936.5 -- 12
2020-07-06 17:00:00 36.5 12 Noroeste 27 Noroeste 0 936.8 -- 12
2020-07-06 16:00:00 35.4 9 Norte 35 Norte 0 937.2 -- 13
2020-07-06 15:00:00 34.8 8 Nordeste 26 Oeste 0 937.7 -- 14
2020-07-06 14:00:00 34.2 8 Nordeste 21 Nordeste 0 938.2 -- 17
2020-07-06 13:00:00 32.5 7 Norte 20 Nordeste 0 938.6 -- 20
2020-07-06 12:00:00 30.2 9 Norte 19 Norte 0 938.8 -- 25
2020-07-06 11:00:00 27.3 4 Norte 14 Nordeste 0 938.9 -- 32
2020-07-06 10:00:00 24.8 3 Norte 11 Nordeste 0 938.8 -- 37
2020-07-06 09:00:00 21.9 5 Norte 18 Oeste 0 938.7 -- 43
2020-07-06 08:00:00 18.7 5 Noroeste 18 Nordeste 0 938.6 -- 51
2020-07-06 07:00:00 18 6 Oeste 19 Oeste 0 938.2 -- 52
2020-07-06 06:00:00 21.2 4 Sur 12 Sudeste 0 938.1 -- 47
2020-07-06 05:00:00 21.3 9 Sudeste 28 Este 0 938.3 -- 48
2020-07-06 04:00:00 22.4 15 Nordeste 23 Nordeste 0 938.2 -- 29
2020-07-06 03:00:00 23.5 6 Sur 18 Sur 0 938.5 -- 26
2020-07-06 02:00:00 23.8 8 Oeste 22 Norte 0 938.4 -- 26
2020-07-06 01:00:00 24.4 6 Sudoeste 12 Norte 0 938.5 -- 24
2020-07-06 00:00:00 27.7 4 Nordeste 9 Nordeste 0 938.4 -- 26
2020-07-05 23:00:00 29.3 5 Nordeste 20 Nordeste 0 938.2 -- 17
2020-07-05 22:00:00 31.6 7 Norte 21 Nordeste 0 937.8 -- 15
2020-07-05 21:00:00 34.1 7 Norte 20 Noroeste 0 937.6 -- 13
2020-07-05 20:00:00 35 7 Norte 23 Norte 0 937.5 -- 13
2020-07-05 19:00:00 35.5 6 Nordeste 27 Norte 0 937.7 -- 13
2020-07-05 18:00:00 35.4 6 Este 22 Norte 0 938.1 -- 13
2020-07-05 17:00:00 34.9 9 Nordeste 26 Nordeste 0 938.7 -- 14
2020-07-05 16:00:00 35.3 10 Sudeste 31 Sudeste 0 939.2 -- 14
2020-07-05 15:00:00 34.6 8 Noroeste 26 Noroeste 0 939.7 -- 15
2020-07-05 14:00:00 33.7 7 Sudeste 21 Este 0 940.3 -- 21
2020-07-05 13:00:00 31.8 6 Nordeste 21 Sudeste 0 940.8 -- 31
2020-07-05 12:00:00 29.2 6 Sudeste 16 Este 0 941.2 -- 39
2020-07-05 11:00:00 26.5 6 Este 28 Este 0 941.3 -- 49
2020-07-05 10:00:00 23.9 9 Este 29 Este 0 941.5 -- 59
2020-07-05 09:00:00 21.4 12 Este 22 Este 0 941.4 -- 70
2020-07-05 08:00:00 18.9 9 Nordeste 19 Nordeste 0 941.3 -- 76
2020-07-05 07:00:00 19.1 6 Sudeste 23 Este 0 941.1 -- 77
2020-07-05 06:00:00 19 10 Este 26 Este 0 941 -- 77
2020-07-05 05:00:00 20.1 11 Este 24 Este 0 941 -- 74
2020-07-05 04:00:00 19.8 9 Este 27 Este 0 941.1 -- 61
2020-07-05 03:00:00 20.8 8 Sudeste 22 Este 0 941.2 -- 32
2020-07-05 02:00:00 23.1 5 Sudeste 31 Este 0 941.2 -- 21
2020-07-05 01:00:00 24.4 0 Calma 19 Nordeste 0 940.8 -- 20
2020-07-05 00:00:00 26.4 9 Nordeste 17 Nordeste 0 940.6 -- 18
2020-07-04 23:00:00 27.9 8 Nordeste 17 Norte 0 940.2 -- 17
2020-07-04 22:00:00 29.9 8 Nordeste 18 Nordeste 0 939.6 -- 15
2020-07-04 21:00:00 32.5 12 Nordeste 20 Nordeste 0 939.3 -- 14
2020-07-04 20:00:00 33.7 5 Nordeste 16 Norte 0 939.2 -- 14
2020-07-04 19:00:00 34.1 6 Noroeste 21 Noroeste 0 939.4 -- 13
2020-07-04 18:00:00 33.7 7 Noroeste 21 Noroeste 0 939.8 -- 14
2020-07-04 17:00:00 33.2 6 Oeste 22 Norte 0 940.2 -- 15
2020-07-04 16:00:00 33.1 7 Noroeste 20 Sudoeste 0 940.6 -- 16
2020-07-04 15:00:00 32.2 7 Noroeste 25 Noroeste 0 941.2 -- 19
2020-07-04 14:00:00 31.3 9 Sur 21 Nordeste 0 941.7 -- 21
2020-07-04 13:00:00 29.4 9 Nordeste 26 Nordeste 0 942.2 -- 31
2020-07-04 12:00:00 26.9 7 Nordeste 26 Este 0 942.3 -- 43
2020-07-04 11:00:00 24.8 8 Nordeste 30 Nordeste 0 942.3 -- 57
2020-07-04 10:00:00 22.9 10 Este 28 Este 0 942.2 -- 64
2020-07-04 09:00:00 20.9 4 Nordeste 20 Nordeste 0 941.9 -- 67
2020-07-04 08:00:00 15.4 7 Noroeste 20 Norte 0 941.6 -- 55
2020-07-04 07:00:00 14.7 13 Norte 22 Norte 0 941.4 -- 54
2020-07-04 06:00:00 15.9 5 Norte 19 Oeste 0 940.9 -- 45
2020-07-04 05:00:00 16.6 5 Sudoeste 10 Este 0 940.6 -- 35
2020-07-04 04:00:00 18.7 4 Nordeste 26 Nordeste 0 940.6 -- 32
2020-07-04 03:00:00 17.8 9 Oeste 25 Oeste 0 940.3 -- 31
2020-07-04 02:00:00 19.4 7 Oeste 20 Oeste 0 940.1 -- 28
2020-07-04 01:00:00 20.6 5 Oeste 8 Oeste 0 940 -- 24
2020-07-04 00:00:00 23.3 4 Norte 15 Noroeste 0 939.8 -- 21
2020-07-03 23:00:00 25.5 6 Norte 17 Noroeste 0 939.4 -- 18
2020-07-03 22:00:00 28.1 12 Norte 20 Norte 0 938.9 -- 15
2020-07-03 21:00:00 30.3 13 Norte 23 Norte 0 938.5 -- 14
2020-07-03 20:00:00 31.6 12 Norte 25 Noroeste 0 938 -- 13
2020-07-03 19:00:00 31.4 11 Norte 25 Oeste 0 937.8 -- 13
2020-07-03 18:00:00 31.5 8 Noroeste 22 Noroeste 0 938 -- 14
2020-07-03 17:00:00 31.7 11 Oeste 28 Oeste 0 938.4 -- 13
2020-07-03 16:00:00 30.1 11 Norte 23 Norte 0 938.7 -- 15
2020-07-03 15:00:00 29.9 5 Sur 24 Oeste 0 939.1 -- 17
2020-07-03 14:00:00 28.7 7 Oeste 21 Noroeste 0 939.5 -- 18
2020-07-03 13:00:00 27.3 5 Noroeste 27 Oeste 0 939.6 -- 27
2020-07-03 12:00:00 24.6 10 Noroeste 30 Norte 0 939.7 -- 41
2020-07-03 11:00:00 22.3 14 Noroeste 35 Noroeste 0 939.7 -- 49
2020-07-03 10:00:00 20.8 10 Norte 28 Norte 0 939.5 -- 52
2020-07-03 09:00:00 19.6 14 Noroeste 30 Noroeste 0 939.1 -- 50
2020-07-03 08:00:00 17 11 Noroeste 26 Oeste 0 938.7 -- 43
2020-07-03 07:00:00 15.1 14 Oeste 24 Oeste 0 938.3 -- 46
2020-07-03 06:00:00 17 12 Oeste 26 Oeste 0 938 -- 41
2020-07-03 05:00:00 18.1 4 Noroeste 26 Oeste 0 937.9 -- 38
2020-07-03 04:00:00 18.9 11 Noroeste 35 Oeste 0 937.8 -- 36
2020-07-03 03:00:00 20.3 16 Noroeste 33 Oeste 0 937.7 -- 33
2020-07-03 02:00:00 20.8 13 Noroeste 33 Oeste 0 937.8 -- 33
2020-07-03 01:00:00 22 10 Noroeste 28 Oeste 0 937.8 -- 31
2020-07-03 00:00:00 22.3 7 Noroeste 15 Oeste 0 937.4 -- 31
2020-07-02 23:00:00 24.9 11 Oeste 25 Oeste 0 936.9 -- 29
2020-07-02 22:00:00 27.9 16 Oeste 33 Sudoeste 0 936.2 -- 23
2020-07-02 21:00:00 29.7 17 Sudoeste 36 Sudoeste 0 935.7 -- 20
2020-07-02 20:00:00 31 20 Sudoeste 40 Oeste 0 935.5 -- 16
2020-07-02 19:00:00 32.3 19 Oeste 44 Oeste 0 935.5 -- 13
2020-07-02 18:00:00 32.6 21 Oeste 46 Oeste 0 935.6 -- 12
2020-07-02 17:00:00 32.5 26 Oeste 51 Noroeste 0 935.6 -- 13
2020-07-02 16:00:00 32.6 25 Oeste 54 Oeste 0 936.1 -- 13
2020-07-02 15:00:00 32.3 25 Oeste 47 Sudoeste 0 936.4 -- 13
2020-07-02 14:00:00 31.6 26 Sudoeste 45 Sudoeste 0 936.6 -- 15
2020-07-02 13:00:00 31.4 24 Oeste 42 Oeste 0 936.6 -- 14
2020-07-02 12:00:00 30.1 17 Sudoeste 31 Sudoeste 0 936.6 -- 17
2020-07-02 11:00:00 28.8 14 Oeste 29 Oeste 0 936.5 -- 23
2020-07-02 10:00:00 26.9 8 Sudoeste 19 Oeste 0 936.5 -- 28
2020-07-02 09:00:00 24 8 Sudoeste 23 Sudoeste 0 936.2 -- 36
2020-07-02 08:00:00 20.1 6 Sudoeste 22 Oeste 0 935.7 -- 44
2020-07-02 07:00:00 18.4 4 Oeste 8 Oeste 0 935.5 -- 48
2020-07-02 06:00:00 19.6 4 Oeste 20 Oeste 0 935.2 -- 44
2020-07-02 05:00:00 20.3 6 Oeste 22 Oeste 0 935 -- 43
2020-07-02 04:00:00 21.1 6 Noroeste 14 Sudoeste 0 935.3 -- 40
2020-07-02 03:00:00 22.5 9 Sudoeste 17 Sudoeste 0 935.4 -- 37
2020-07-02 02:00:00 23.4 8 Sudoeste 18 Oeste 0 935.3 -- 31
2020-07-02 01:00:00 23.9 6 Sudoeste 17 Norte 0 935.5 -- 25
2020-07-02 00:00:00 25.9 11 Oeste 21 Oeste 0 935.2 -- 19
2020-07-01 23:00:00 26.3 11 Oeste 20 Oeste 0 934.9 -- 19
2020-07-01 22:00:00 29.7 13 Oeste 27 Sudoeste 0 934.4 -- 16
2020-07-01 21:00:00 32.3 19 Sudoeste 36 Sudoeste 0 934.1 -- 12
2020-07-01 20:00:00 33.7 18 Oeste 59 Oeste 0 933.7 -- 12
2020-07-01 19:00:00 34.5 22 Oeste 42 Sudoeste 0 933.6 -- 12
2020-07-01 18:00:00 34.9 21 Oeste 46 Oeste 0 933.9 -- 13
2020-07-01 17:00:00 34.7 19 Oeste 44 Sudoeste 0 934 -- 13
2020-07-01 16:00:00 34.8 24 Sudoeste 49 Sudoeste 0 934.4 -- 12
2020-07-01 15:00:00 34.6 22 Sudoeste 46 Oeste 0 934.4 -- 15
2020-07-01 14:00:00 33.3 25 Sudoeste 50 Sudoeste 0 934.8 -- 17
2020-07-01 13:00:00 32.2 21 Oeste 48 Sudoeste 0 935.1 -- 18
2020-07-01 12:00:00 31.3 26 Sudoeste 49 Sudoeste 0 935.1 -- 18
2020-07-01 11:00:00 29.7 27 Sudoeste 45 Sudoeste 0 935 -- 24
2020-07-01 10:00:00 27.7 12 Sudoeste 28 Oeste 0 935.1 -- 29
2020-07-01 09:00:00 25.6 14 Sudoeste 25 Sudoeste 0 934.9 -- 33
2020-07-01 08:00:00 22.3 4 Sur 19 Este 0 934.5 -- 39
2020-07-01 07:00:00 21.9 8 Sudoeste 31 Oeste 0 933.9 -- 40
2020-07-01 06:00:00 21.7 12 Oeste 29 Oeste 0 933.3 -- 40
2020-07-01 05:00:00 23.4 4 Sudoeste 16 Sudoeste 0 933.3 -- 36
2020-07-01 04:00:00 24.4 6 Sudoeste 12 Oeste 0 933.2 -- 33
2020-07-01 03:00:00 25 7 Sudoeste 35 Oeste 0 933.4 -- 31
2020-07-01 02:00:00 25.1 8 Oeste 20 Norte 0 933.4 -- 30
2020-07-01 01:00:00 25.4 9 Oeste 15 Sudoeste 0 933.1 -- 27
2020-07-01 00:00:00 27 9 Sudoeste 16 Sudoeste 0 932.6 -- 21
2020-06-30 23:00:00 28.5 7 Sudoeste 16 Sudoeste 0 932.3 -- 18
2020-06-30 22:00:00 31.4 11 Sudoeste 25 Oeste 0 931.9 -- 14
2020-06-30 21:00:00 34.4 17 Sudoeste 35 Sudoeste 0 931.4 -- 11
2020-06-30 20:00:00 36.2 19 Sudoeste 42 Sudoeste 0 931.2 -- 9
2020-06-30 19:00:00 37 22 Sudoeste 45 Sudoeste 0 931.1 -- 10
2020-06-30 18:00:00 37.4 26 Oeste 44 Sudoeste 0 931.5 -- 12
2020-06-30 17:00:00 37.7 14 Oeste 42 Sudoeste 0 931.7 -- 12
2020-06-30 16:00:00 37.3 13 Sudoeste 41 Sur 0 932.4 -- 13
2020-06-30 15:00:00 36.3 13 Sudoeste 32 Sudoeste 0 933 -- 13
2020-06-30 14:00:00 35.8 14 Oeste 42 Sudoeste 0 933.5 -- 14
2020-06-30 13:00:00 33.9 9 Sudoeste 26 Sur 0 933.9 -- 18
2020-06-30 12:00:00 32 9 Sudeste 15 Sudeste 0 934.2 -- 22
2020-06-30 11:00:00 29 6 Sudeste 17 Sudeste 0 934.5 -- 26
2020-06-30 10:00:00 25.6 6 Este 23 Este 0 934.5 -- 34
2020-06-30 09:00:00 23.4 6 Sudeste 22 Este 0 934.7 -- 38
2020-06-30 08:00:00 19.4 8 Este 17 Este 0 934.6 -- 51
2020-06-30 07:00:00 19.6 3 Sudeste 22 Este 0 934.5 -- 50
2020-06-30 06:00:00 20.2 8 Sudeste 23 Este 0 934.1 -- 49
2020-06-30 05:00:00 20.5 8 Este 21 Este 0 933.9 -- 49
2020-06-30 04:00:00 22 8 Este 10 Este 0 934.1 -- 42
2020-06-30 03:00:00 22.8 7 Nordeste 15 Nordeste 0 934.3 -- 33
2020-06-30 02:00:00 23.5 4 Este 11 Sur 0 934.5 -- 32
2020-06-30 01:00:00 25.2 5 Oeste 13 Oeste 0 934.7 -- 30
2020-06-30 00:00:00 26.1 9 Norte 20 Norte 0 934.7 -- 27
2020-06-29 23:00:00 28.4 11 Noroeste 16 Noroeste 0 934.4 -- 23
2020-06-29 22:00:00 31.1 9 Noroeste 15 Oeste 0 933.8 -- 21
2020-06-29 21:00:00 34.7 12 Oeste 30 Sudoeste 0 933.7 -- 16
2020-06-29 20:00:00 36.1 10 Oeste 31 Oeste 0 933.6 -- 14
2020-06-29 19:00:00 36.8 14 Oeste 34 Noroeste 0 933.9 -- 14
2020-06-29 18:00:00 36.3 10 Sudoeste 35 Oeste 0 934.5 -- 14
2020-06-29 17:00:00 35.8 6 Norte 40 Sur 0 935 -- 16
2020-06-29 16:00:00 35.4 5 Sudeste 32 Sudoeste 0 935.6 -- 16
2020-06-29 15:00:00 35.5 14 Sudoeste 30 Sudoeste 0 936.3 -- 15
2020-06-29 14:00:00 34 7 Oeste 30 Sudoeste 0 936.9 -- 19
2020-06-29 13:00:00 33.2 9 Este 19 Sudeste 0 937.5 -- 22
2020-06-29 12:00:00 31.5 6 Noroeste 20 Sudoeste 0 937.9 -- 24
2020-06-29 11:00:00 28.9 5 Oeste 14 Noroeste 0 938 -- 29
2020-06-29 10:00:00 26.2 4 Sudoeste 11 Oeste 0 938.3 -- 37
2020-06-29 09:00:00 24.7 2 Sudeste 21 Este 0 938.2 -- 39
2020-06-29 08:00:00 21 6 Este 18 Este 0 937.9 -- 46
2020-06-29 07:00:00 19.3 2 Noroeste 12 Este 0 937.5 -- 51
2020-06-29 06:00:00 19.8 8 Oeste 23 Oeste 0 937.1 -- 49
2020-06-29 05:00:00 20.4 6 Oeste 28 Oeste 0 937 -- 46
2020-06-29 04:00:00 20.4 9 Noroeste 32 Oeste 0 937.1 -- 42
2020-06-29 03:00:00 21.4 14 Oeste 30 Oeste 0 937.3 -- 38
2020-06-29 02:00:00 22.7 10 Oeste 14 Oeste 0 937.6 -- 34
2020-06-29 01:00:00 24.1 8 Oeste 15 Norte 0 937.5 -- 33
2020-06-29 00:00:00 25.3 10 Norte 22 Norte 0 937.4 -- 30
2020-06-28 23:00:00 27 11 Noroeste 26 Norte 0 937.1 -- 26
2020-06-28 22:00:00 29.4 9 Oeste 21 Noroeste 0 936.5 -- 23
2020-06-28 21:00:00 32.6 12 Oeste 28 Oeste 0 936.3 -- 19
2020-06-28 20:00:00 33.9 10 Noroeste 27 Oeste 0 936.1 -- 17
2020-06-28 19:00:00 34.4 9 Oeste 31 Sudoeste 0 936.2 -- 14
2020-06-28 18:00:00 34.6 10 Sudoeste 31 Sudoeste 0 936.5 -- 14
2020-06-28 17:00:00 34.4 10 Sudoeste 29 Sur 0 937 -- 17
2020-06-28 16:00:00 34.1 5 Oeste 19 Sudeste 0 937.3 -1.8 19
2020-06-28 15:00:00 33 9 Sur 19 Sur 0 937.9 -- 22
2020-06-28 14:00:00 31.6 10 Noroeste 22 Noroeste 0 938.4 -- 24
2020-06-28 13:00:00 29.7 8 Este 24 Este 0 939.1 -- 27
2020-06-28 12:00:00 28.6 5 Sudoeste 17 Nordeste 0 939.3 -- 29
2020-06-28 11:00:00 27 6 Nordeste 16 Nordeste 0 939.3 -- 34
2020-06-28 10:00:00 25.4 6 Norte 20 Noroeste 0 939.1 -- 38
2020-06-28 09:00:00 23.5 8 Noroeste 27 Oeste 0 938.8 -- 45
2020-06-28 08:00:00 20 3 Oeste 23 Oeste 0 938.5 -- 53
2020-06-28 07:00:00 17.6 12 Oeste 23 Oeste 0 938.3 -- 59
2020-06-28 06:00:00 18.6 9 Oeste 28 Oeste 0 938 -- 55
2020-06-28 05:00:00 18.7 13 Oeste 26 Oeste 0 938 -- 52
2020-06-28 04:00:00 18.9 12 Oeste 24 Oeste 0 938 -- 50
2020-06-28 03:00:00 19.6 8 Oeste 13 Norte 0 938 -- 48
2020-06-28 02:00:00 20.8 6 Noroeste 13 Norte 0 938 -- 42
2020-06-28 01:00:00 22 9 Noroeste 28 Oeste 0 937.9 -- 37
2020-06-28 00:00:00 23.8 10 Oeste 16 Oeste 0 937.7 -- 33
2020-06-27 23:00:00 25.6 10 Oeste 17 Oeste 0 937.3 -- 30
2020-06-27 22:00:00 28.5 12 Noroeste 22 Noroeste 0 936.4 -- 25
2020-06-27 21:00:00 30 16 Noroeste 32 Noroeste 0 936.1 -- 24
2020-06-27 20:00:00 32.3 8 Noroeste 24 Noroeste 0 935.8 -- 21
2020-06-27 19:00:00 32.5 12 Sudoeste 33 Oeste 0 935.8 -- 20
2020-06-27 18:00:00 32 15 Noroeste 33 Oeste 0 936.1 -- 20
2020-06-27 17:00:00 32.2 14 Oeste 29 Oeste 0 936.2 -- 19
2020-06-27 16:00:00 31.3 11 Oeste 28 Oeste 0 936.5 -- 20
2020-06-27 15:00:00 30.9 13 Sur 51 Oeste 0 936.9 -- 21
2020-06-27 14:00:00 29.1 4 Sudeste 34 Oeste 0 937.3 -- 23
2020-06-27 13:00:00 27.8 5 Sudeste 28 Sudoeste 0 937.7 -- 23
2020-06-27 12:00:00 26.5 9 Sudoeste 29 Oeste 0 937.9 -- 26
2020-06-27 11:00:00 24.3 8 Noroeste 27 Oeste 0 938.1 -- 33
2020-06-27 10:00:00 22.8 7 Noroeste 23 Oeste 0 938.1 -- 39
2020-06-27 09:00:00 20.6 9 Sudoeste 22 Oeste 0 937.8 -- 40
2020-06-27 08:00:00 15.7 5 Sudoeste 21 Oeste 0 937.6 -- 52
2020-06-27 07:00:00 15.3 11 Oeste 23 Oeste 0 937.3 -- 52
2020-06-27 06:00:00 16 10 Sudoeste 12 Sudoeste 0 937 -- 52
2020-06-27 05:00:00 16 9 Oeste 20 Oeste 0 936.8 -- 50
2020-06-27 04:00:00 17.1 7 Sudoeste 22 Sudoeste 0 936.5 -- 44
2020-06-27 03:00:00 18.1 9 Sudoeste 21 Sudoeste 0 936.5 -- 35
2020-06-27 02:00:00 18.9 6 Sudoeste 22 Oeste 0 936.3 -- 29
2020-06-27 01:00:00 19.7 5 Sudoeste 14 Oeste 0 936.5 -- 24
2020-06-27 00:00:00 20.8 9 Oeste 29 Oeste 0 936.3 -- 21
2020-06-26 23:00:00 23 9 Oeste 35 Oeste 0 935.6 -- 21
2020-06-26 22:00:00 24.9 14 Oeste 40 Oeste 0 934.7 -- 19
2020-06-26 21:00:00 27.2 22 Oeste 40 Oeste 0 934.4 -- 16
2020-06-26 20:00:00 28.9 24 Oeste 40 Oeste 0 934 -- 16
2020-06-26 19:00:00 31 18 Oeste 40 Oeste 0 933.8 -- 18
2020-06-26 18:00:00 31.4 19 Oeste 38 Sudoeste 0 934 -- 19
2020-06-26 17:00:00 31.6 18 Sudoeste 42 Oeste 0 934.2 -- 17
2020-06-26 16:00:00 31.3 18 Oeste 40 Oeste 0 934.5 -- 19
2020-06-26 15:00:00 30.6 16 Sudoeste 38 Sudoeste 0 934.8 -- 21
2020-06-26 14:00:00 29.9 16 Sudoeste 32 Sudoeste 0 935.3 -- 24
2020-06-26 13:00:00 28.5 12 Sudoeste 27 Sudoeste 0 935.5 -- 29
2020-06-26 12:00:00 28.6 6 Sudoeste 18 Sudeste 0 935.6 -- 29
2020-06-26 11:00:00 26.6 4 Noroeste 10 Sudoeste 0 935.7 -- 34
2020-06-26 10:00:00 24.9 3 Oeste 10 Sudoeste 0 935.9 -- 38
2020-06-26 09:00:00 23.6 0 Calma 23 Oeste 0 935.7 -- 45
2020-06-26 08:00:00 19.6 5 Oeste 21 Oeste 0 935.4 -- 58
2020-06-26 07:00:00 17.8 6 Oeste 21 Oeste 0 935.3 -- 59
2020-06-26 06:00:00 19.2 5 Noroeste 22 Oeste 0 935.2 -- 54
2020-06-26 05:00:00 19.8 3 Oeste 12 Sudoeste 0 935 -- 53
2020-06-26 04:00:00 19.8 6 Oeste 11 Oeste 0 935 -- 50
2020-06-26 03:00:00 21.2 4 Norte 32 Oeste 0 935 -- 45
2020-06-26 02:00:00 21.9 7 Oeste 12 Norte 0 935.1 -- 43
2020-06-26 01:00:00 23.5 8 Noroeste 17 Noroeste 0 935 -- 38
2020-06-26 00:00:00 24.6 6 Sudoeste 15 Oeste 0 934.6 -- 36
2020-06-25 23:00:00 26.7 12 Oeste 17 Oeste 0 934.2 -- 30
2020-06-25 22:00:00 29 10 Oeste 35 Oeste 0 933.4 -- 26
2020-06-25 21:00:00 32.1 15 Oeste 36 Oeste 0 933 -- 21
2020-06-25 20:00:00 33.7 15 Sudoeste 31 Sudoeste 0 932.8 -- 17
2020-06-25 19:00:00 34.1 9 Sudoeste 35 Sur 0 932.7 -- 17
2020-06-25 18:00:00 33.9 8 Sudoeste 34 Sur 0 933.3 -- 17
2020-06-25 17:00:00 34.5 15 Sur 40 Sur 0 933.8 -- 15
2020-06-25 16:00:00 34.2 13 Sudeste 37 Sudeste 0 934.2 -- 16
2020-06-25 15:00:00 33.4 13 Sudeste 32 Sudeste 0 934.8 -- 17
2020-06-25 14:00:00 31.9 8 Oeste 20 Sur 0 935.5 -- 23
2020-06-25 13:00:00 30.7 6 Sur 13 Sudeste 0 935.9 -- 28
2020-06-25 12:00:00 28.7 6 Sudoeste 16 Sur 0 936.3 -- 31
2020-06-25 11:00:00 26 3 Sur 21 Este 0 936.4 -- 37
2020-06-25 10:00:00 23.6 7 Sudeste 27 Sudeste 0 936.4 -- 46
2020-06-25 09:00:00 20.8 13 Sudeste 30 Sudeste 0 936.3 -- 57
2020-06-25 08:00:00 18.4 12 Sudeste 27 Este 0 936 -- 67
2020-06-25 07:00:00 18.2 13 Sudeste 25 Este 0 935.9 -- 64
2020-06-25 06:00:00 18.9 11 Sudeste 27 Sudeste 0 935.7 -- 58
2020-06-25 05:00:00 18.9 8 Sudeste 26 Este 0 935.8 -- 52
2020-06-25 04:00:00 19.3 10 Sudeste 24 Este 0 935.7 -- 46
2020-06-25 03:00:00 19.2 6 Sudeste 23 Este 0 935.8 -- 50
2020-06-25 02:00:00 20.2 5 Este 25 Este 0 936 -- 47
2020-06-25 01:00:00 21.4 8 Sudeste 31 Este 0 936.3 -- 45
2020-06-25 00:00:00 21.2 12 Este 28 Este 0 936.3 -- 51
2020-06-24 23:00:00 23 11 Este 17 Este 0 936.1 -- 46
2020-06-24 22:00:00 26.3 13 Este 20 Este 0 935.6 -- 36
2020-06-24 21:00:00 28.3 13 Este 20 Este 0 935.4 -- 32
2020-06-24 20:00:00 30.2 12 Este 29 Sudeste 0 935.5 -- 26
2020-06-24 19:00:00 31.5 13 Sudeste 27 Este 0 935.6 -- 23
2020-06-24 18:00:00 29.2 14 Nordeste 21 Este 0 935.9 -- 37
2020-06-24 17:00:00 29.1 14 Este 27 Este 0 936.4 -- 29
2020-06-24 16:00:00 26.6 5 Sur 19 Sur 0 937 -- 49
2020-06-24 15:00:00 23.3 6 Sur 31 Este 0.2 937 -- 66
2020-06-24 14:00:00 21.4 3 Sudeste 27 Este 0.2 937.9 -- 73
2020-06-24 13:00:00 20.4 7 Nordeste 33 Nordeste 0.8 937.8 -- 81
2020-06-24 12:00:00 21.6 5 Sur 19 Este 0.6 937.7 -- 75
2020-06-24 11:00:00 19.3 4 Nordeste 24 Este 2.4 937.5 -- 76
2020-06-24 10:00:00 19.5 9 Sudeste 32 Sudeste 2 937.7 -- 70
2020-06-24 09:00:00 20.4 15 Sudeste 37 Sur 0 937 -- 55
2020-06-24 08:00:00 19.9 13 Sudeste 30 Sudeste 0 936.9 -- 57
2020-06-24 07:00:00 19.3 10 Sudeste 30 Sudeste 0 936.5 -- 59
2020-06-24 06:00:00 19.3 16 Este 32 Este 0 936.5 -- 61
2020-06-24 05:00:00 20.2 12 Este 28 Este 0 936.6 -- 57
2020-06-24 04:00:00 21 18 Este 32 Este 0 935.9 -- 56
2020-06-24 03:00:00 21.7 21 Este 35 Este 0 935.8 -- 56
2020-06-24 02:00:00 22.7 18 Este 32 Este 3.2 935.8 -- 57
2020-06-24 01:00:00 26.9 8 Sudeste 19 Sudeste 0 936.3 -- 27
2020-06-24 00:00:00 28.4 12 Sudeste 26 Sudeste 0 935.9 -- 25
2020-06-23 23:00:00 30 16 Sudeste 31 Este 0 935.8 -- 21
2020-06-23 22:00:00 31.5 15 Sudeste 30 Este 0 935 -- 18
2020-06-23 21:00:00 34.5 4 Sudeste 20 Sudeste 0 934.4 -- 13
2020-06-23 20:00:00 35.5 11 Sudeste 23 Este 0 934.4 -- 13
2020-06-23 19:00:00 35.3 8 Nordeste 27 Este 0 934.4 -- 13
2020-06-23 18:00:00 35.5 9 Nordeste 34 Norte 0 934.9 -- 13
2020-06-23 17:00:00 35.4 8 Este 25 Sudeste 0 935.4 -- 13
2020-06-23 16:00:00 35.1 6 Sudeste 20 Nordeste 0 936 -- 15
2020-06-23 15:00:00 33.7 9 Este 22 Este 0 936.5 -- 18
2020-06-23 14:00:00 32.2 10 Nordeste 23 Norte 0 937.2 -- 21
2020-06-23 13:00:00 30.1 6 Nordeste 15 Nordeste 0 937.7 -- 24
2020-06-23 12:00:00 28 6 Nordeste 26 Este 0 938 -- 30
2020-06-23 11:00:00 25.7 5 Sudeste 27 Este 0 938.3 -- 35
2020-06-23 10:00:00 22.8 12 Este 26 Este 0 938.6 -- 44
2020-06-23 09:00:00 20.5 12 Este 21 Este 0 938.6 -- 51
2020-06-23 08:00:00 19 6 Este 24 Este 0 938.4 -- 55
2020-06-23 07:00:00 17.8 14 Este 25 Sudeste 0 937.9 -- 61
2020-06-23 06:00:00 18.6 8 Sudeste 24 Este 0 937.7 -- 58
2020-06-23 05:00:00 19.3 7 Sudeste 25 Este 0 937.9 -- 54
2020-06-23 04:00:00 20.2 11 Este 27 Este 0 938.1 -- 52
2020-06-23 03:00:00 21 19 Este 29 Este 0 938.2 -- 47
2020-06-23 02:00:00 22.2 11 Este 23 Este 0 938.1 -- 38
2020-06-23 01:00:00 24.2 5 Este 17 Nordeste 0 938.1 -- 33
2020-06-23 00:00:00 27 8 Sudeste 18 Sur 0 938.1 -- 29
2020-06-22 23:00:00 28.1 10 Sudeste 19 Sudeste 0 937.7 -- 21
2020-06-22 22:00:00 30 9 Nordeste 19 Este 0 937.1 -- 16
2020-06-22 21:00:00 33.3 10 Este 18 Nordeste 0 936.9 -- 13
2020-06-22 20:00:00 35 5 Sudoeste 15 Oeste 0 936.9 -- 12
2020-06-22 19:00:00 35.3 4 Sur 14 Noroeste 0 937.2 -- 12
2020-06-22 18:00:00 35.4 6 Sudoeste 30 Sudoeste 0 937.8 -- 12
2020-06-22 17:00:00 35.3 8 Sur 21 Este 0 938.5 -- 12
2020-06-22 16:00:00 34.3 13 Oeste 27 Este 0 939.5 -- 14
2020-06-22 15:00:00 33.5 7 Oeste 22 Este 0 940.1 -- 15
2020-06-22 14:00:00 32.3 13 Este 31 Este 0 941 -- 18
2020-06-22 13:00:00 30.5 10 Este 25 Nordeste 0 941.5 -- 24
2020-06-22 12:00:00 28.7 11 Nordeste 28 Este 0 941.8 -- 29
2020-06-22 11:00:00 26.1 12 Este 32 Este 0 942.1 -- 33
2020-06-22 10:00:00 24.3 14 Este 30 Este 0 942.5 -- 38
2020-06-22 09:00:00 21.9 5 Norte 22 Norte 0 942.6 -- 40
2020-06-22 08:00:00 17.5 11 Noroeste 22 Norte 0 942.4 -- 44
2020-06-22 07:00:00 16.5 6 Norte 24 Norte 0 942.1 -- 41
2020-06-22 06:00:00 16.5 6 Norte 21 Nordeste 0 942 -- 42
2020-06-22 05:00:00 17.3 3 Nordeste 24 Norte 0 942 -- 38
2020-06-22 04:00:00 17.5 7 Noroeste 24 Oeste 0 942 -- 32
2020-06-22 03:00:00 19 8 Oeste 23 Oeste 0 941.7 -- 29
2020-06-22 02:00:00 20.2 8 Oeste 12 Oeste 0 941.8 -- 26
2020-06-22 01:00:00 22.1 5 Oeste 12 Norte 0 942 -- 24
2020-06-22 00:00:00 23 5 Noroeste 13 Norte 0 942 -- 22
2020-06-21 23:00:00 25.3 11 Noroeste 26 Norte 0 941.7 -- 19
2020-06-21 22:00:00 28.8 11 Norte 19 Norte 0 941.1 -- 17
2020-06-21 21:00:00 32.1 10 Noroeste 22 Oeste 0 940.7 -- 14
2020-06-21 20:00:00 33.4 6 Noroeste 25 Sudoeste 0 940.3 -- 12
2020-06-21 19:00:00 33.9 9 Sudoeste 27 Oeste 0 940.5 -- 12
2020-06-21 18:00:00 33.9 12 Oeste 38 Oeste 0 941 -- 11
2020-06-21 17:00:00 34.4 14 Oeste 33 Oeste 0 941.3 -- 11
2020-06-21 16:00:00 33.2 10 Noroeste 29 Oeste 0 941.8 -- 12
2020-06-21 15:00:00 33.2 14 Oeste 31 Sur 0 942.2 -- 13
2020-06-21 14:00:00 32.2 10 Sudoeste 32 Oeste 0 942.8 -- 15
2020-06-21 13:00:00 30.5 7 Oeste 24 Oeste 0 943.2 -- 17
2020-06-21 12:00:00 29.2 6 Noroeste 18 Oeste 0 943.4 -- 19
2020-06-21 11:00:00 27.6 4 Noroeste 15 Norte 0 943.4 -- 22
2020-06-21 10:00:00 25.4 9 Noroeste 31 Oeste 0 943.5 -- 26
2020-06-21 09:00:00 22.5 10 Oeste 29 Oeste 0 943.3 -- 32
2020-06-21 08:00:00 18.6 12 Oeste 27 Oeste 0 943 -- 38
2020-06-21 07:00:00 15.3 17 Oeste 26 Oeste 0 942.2 -- 44
2020-06-21 06:00:00 15.6 14 Oeste 23 Oeste 0 942 -- 40
2020-06-21 05:00:00 17.2 12 Oeste 23 Oeste 0 941.9 -- 36
2020-06-21 04:00:00 17.2 10 Oeste 22 Oeste 0 942 -- 34
2020-06-21 03:00:00 18 9 Oeste 24 Oeste 0 942.2 -- 30
2020-06-21 02:00:00 19.4 11 Oeste 28 Oeste 0 942.4 -- 26
2020-06-21 01:00:00 19.8 12 Oeste 27 Oeste 0 942.2 -- 24
2020-06-21 00:00:00 21.8 9 Oeste 14 Oeste 0 942 -- 21
2020-06-20 23:00:00 23.9 8 Oeste 18 Oeste 0 941.6 -- 18
2020-06-20 22:00:00 26.5 9 Oeste 27 Noroeste 0 941 -- 15
2020-06-20 21:00:00 29.5 16 Oeste 37 Oeste 0 940.7 -- 13
2020-06-20 20:00:00 31.3 17 Oeste 50 Oeste 0 940.3 -- 13
2020-06-20 19:00:00 31.9 13 Noroeste 34 Oeste 0 940.1 -- 13
2020-06-20 18:00:00 32.1 16 Oeste 37 Oeste 0 940.2 -- 12
2020-06-20 17:00:00 32.3 16 Oeste 38 Oeste 0 940.6 -- 12
2020-06-20 16:00:00 31.8 16 Oeste 37 Oeste 0 941 -- 12
2020-06-20 15:00:00 31.1 16 Sudoeste 37 Sudoeste 0 941.3 -- 12
2020-06-20 14:00:00 30.4 11 Sudoeste 37 Sudoeste 0 941.6 -- 14
2020-06-20 13:00:00 29.2 14 Sudoeste 35 Sudoeste 0 942 -- 14
2020-06-20 12:00:00 28 5 Sudeste 18 Sudeste 0 942 -- 19
2020-06-20 11:00:00 27 3 Sudoeste 15 Sudeste 0 942 -- 21
2020-06-20 10:00:00 25.1 2 Sudeste 17 Este 0 941.9 -- 23
2020-06-20 09:00:00 20.8 5 Este 16 Este 0 941.7 -- 28
2020-06-20 08:00:00 16.8 5 Sudoeste 14 Sudoeste 0 941.1 -- 35
2020-06-20 07:00:00 14.8 8 Sudoeste 18 Sudoeste 0 940.9 -- 38
2020-06-20 06:00:00 14.2 3 Nordeste 21 Sudoeste 0 940.7 -- 38
2020-06-20 05:00:00 15.9 6 Sudoeste 20 Sudoeste 0 940.5 -- 37
2020-06-20 04:00:00 16.7 7 Sudoeste 23 Oeste 0 940.3 -- 32
2020-06-20 03:00:00 16.5 17 Oeste 24 Oeste 0 940.3 -- 32
2020-06-20 02:00:00 19.1 11 Oeste 22 Oeste 0 940.5 -- 26
2020-06-20 01:00:00 20.1 10 Oeste 29 Oeste 0 940.5 -- 25
2020-06-20 00:00:00 20.8 13 Oeste 32 Oeste 0 940.2 -- 23
2020-06-19 23:00:00 21.6 13 Oeste 28 Oeste 0 939.5 -- 23
2020-06-19 22:00:00 24.6 11 Oeste 25 Sudoeste 0 938.8 -- 19
2020-06-19 21:00:00 27.9 11 Sudoeste 33 Sudoeste 0 938.4 -- 15
2020-06-19 20:00:00 29 19 Oeste 42 Sudoeste 0 937.8 -- 13
2020-06-19 19:00:00 29.8 13 Oeste 39 Oeste 0 937.4 -- 15
2020-06-19 18:00:00 29.9 12 Oeste 36 Oeste 0 937.3 -- 16
2020-06-19 17:00:00 29.3 14 Sudoeste 41 Oeste 0 937.5 -- 18
2020-06-19 16:00:00 29.4 17 Oeste 37 Oeste 0 937.8 -- 18
2020-06-19 15:00:00 28.9 19 Sudoeste 39 Sudoeste 0 938 -- 17
2020-06-19 14:00:00 27.6 9 Oeste 33 Oeste 0 938 -- 21
2020-06-19 13:00:00 28 5 Sur 30 Sudoeste 0 938.1 -- 24
2020-06-19 12:00:00 25.8 5 Este 23 Nordeste 0 938 -- 28
2020-06-19 11:00:00 23.6 5 Sur 23 Sudoeste 0 938 -- 34
2020-06-19 10:00:00 21.3 5 Norte 22 Oeste 0 937.9 -- 46
2020-06-19 09:00:00 19 9 Norte 18 Oeste 0 937.5 -- 67
2020-06-19 08:00:00 15.4 2 Noroeste 13 Nordeste 0 937.2 -- 74
2020-06-19 07:00:00 14.2 3 Este 23 Sudeste 0 936.7 -- 80
2020-06-19 06:00:00 16 12 Sudeste 23 Sur 0 936.2 -- 73
2020-06-19 05:00:00 16.8 14 Sudeste 24 Sudeste 0 935.9 -- 56
2020-06-19 04:00:00 16.3 12 Sudeste 21 Este 0 935.7 -- 41
2020-06-19 03:00:00 16.2 4 Sudoeste 23 Oeste 0 935.5 -- 41
2020-06-19 02:00:00 16.5 5 Oeste 23 Oeste 0 935.5 -- 40
2020-06-19 01:00:00 17.8 15 Oeste 26 Norte 0 935.5 -- 37
2020-06-19 00:00:00 19.6 11 Oeste 31 Oeste 0 935.2 -- 32
2020-06-18 23:00:00 20.9 13 Oeste 32 Oeste 0 934.8 -- 30
2020-06-18 22:00:00 23.8 10 Noroeste 33 Oeste 0 934 -- 26
2020-06-18 21:00:00 26.7 15 Oeste 33 Oeste 0 933.4 -- 23
2020-06-18 20:00:00 28.2 14 Oeste 36 Oeste 0 933 -- 20
2020-06-18 19:00:00 28.2 13 Sudoeste 31 Sudoeste 0 932.6 -- 21
2020-06-18 18:00:00 28.8 15 Oeste 32 Oeste 0 932.7 -- 19
2020-06-18 17:00:00 28.7 17 Oeste 33 Oeste 0 932.9 -- 18
2020-06-18 16:00:00 28.8 14 Oeste 29 Noroeste 0 933.2 -- 19
2020-06-18 15:00:00 27.3 8 Sur 31 Oeste 0 933.7 -- 20
2020-06-18 14:00:00 26.7 6 Sur 28 Este 0 934 -- 21
2020-06-18 13:00:00 25.5 4 Este 31 Norte 0 934.4 -- 23
2020-06-18 12:00:00 23.6 5 Oeste 23 Nordeste 0 934.4 -- 26
2020-06-18 11:00:00 22.8 8 Nordeste 23 Este 0 934.5 -- 29
2020-06-18 10:00:00 21.4 5 Este 18 Este 0 934.7 -- 32
2020-06-18 09:00:00 17.9 5 Oeste 18 Oeste 0 934.4 -- 40
2020-06-18 08:00:00 14.5 0 Calma 6 Nordeste 0 933.9 -- 47
2020-06-18 07:00:00 11.1 3 Este 12 Este 0 933.7 -- 52
2020-06-18 06:00:00 13 6 Sudoeste 13 Sudeste 0 933.5 -- 49
2020-06-18 05:00:00 14.1 8 Sudoeste 11 Sudoeste 0 933.6 -- 46
2020-06-18 04:00:00 14.8 7 Sudoeste 12 Sudoeste 0 933.8 -- 40
2020-06-18 03:00:00 15.5 8 Sudoeste 12 Sudoeste 0 934.2 -- 36
2020-06-18 02:00:00 15.7 10 Sudoeste 19 Oeste 0 934.6 -- 34
2020-06-18 01:00:00 16.7 10 Oeste 23 Oeste 0 934.8 -- 32
2020-06-18 00:00:00 17.8 14 Oeste 28 Oeste 0 935 -- 30
2020-06-17 23:00:00 20 10 Sudoeste 22 Oeste 0 934.7 -- 27
2020-06-17 22:00:00 22.3 11 Sudoeste 28 Oeste 0 934 -- 24
2020-06-17 21:00:00 24.4 9 Oeste 33 Oeste 0 933.7 -- 23
2020-06-17 20:00:00 25 7 Oeste 39 Oeste 0 933.5 -- 23
2020-06-17 19:00:00 25.9 18 Oeste 37 Oeste 0 933.7 -- 21
2020-06-17 18:00:00 25.3 13 Oeste 36 Oeste 0 934.1 -- 24
2020-06-17 17:00:00 25.7 11 Sudoeste 33 Oeste 0 934.5 -- 22
2020-06-17 16:00:00 25.8 15 Oeste 32 Oeste 0 934.9 -- 23
2020-06-17 15:00:00 24.2 5 Oeste 33 Sudoeste 0 935.3 -- 25
2020-06-17 14:00:00 23.9 9 Sudoeste 28 Oeste 0 935.8 -- 27
2020-06-17 13:00:00 23 9 Sur 27 Noroeste 0 936.3 -- 30
2020-06-17 12:00:00 21.3 10 Sudoeste 26 Oeste 0 936.7 -- 35
2020-06-17 11:00:00 20.1 7 Sudoeste 25 Oeste 0 936.9 -- 39
2020-06-17 10:00:00 18.2 12 Noroeste 23 Oeste 0 937.2 -- 45
2020-06-17 09:00:00 16.7 10 Oeste 22 Oeste 0 937.3 -- 50
2020-06-17 08:00:00 14 2 Sur 13 Oeste 0 937.1 -- 59
2020-06-17 07:00:00 11.7 9 Oeste 17 Norte 0 936.7 -- 66
2020-06-17 06:00:00 12.6 9 Noroeste 24 Noroeste 0 936.6 -- 63
2020-06-17 05:00:00 13.4 11 Oeste 19 Oeste 0 936.9 -- 63
2020-06-17 04:00:00 13.8 9 Oeste 22 Norte 0 937.3 -- 61
2020-06-17 03:00:00 14.4 10 Oeste 24 Oeste 0 937.5 -- 57
2020-06-17 02:00:00 16.4 14 Oeste 29 Oeste 0 938 -- 52
2020-06-17 01:00:00 17.3 6 Noroeste 20 Oeste 0 938.4 -- 49
2020-06-17 00:00:00 18.3 4 Oeste 18 Oeste 0 938.5 -- 47
2020-06-16 23:00:00 19.5 6 Norte 34 Oeste 0 938.1 -- 43
2020-06-16 22:00:00 22.7 21 Oeste 36 Oeste 0 937.5 -- 31
2020-06-16 21:00:00 23.6 23 Oeste 43 Oeste 0 937.1 -- 28
2020-06-16 20:00:00 24.7 26 Oeste 42 Oeste 0 936.8 -- 26
2020-06-16 19:00:00 25.5 22 Oeste 46 Noroeste 0 936.7 -- 24
2020-06-16 18:00:00 27.3 25 Oeste 48 Oeste 0 936.9 -- 22
2020-06-16 17:00:00 27.1 21 Noroeste 46 Noroeste 0 937.2 -- 22
2020-06-16 16:00:00 26.6 23 Oeste 46 Noroeste 0 937.6 -- 24
2020-06-16 15:00:00 24.8 22 Noroeste 44 Noroeste 0 938 -- 28
2020-06-16 14:00:00 24.3 12 Noroeste 39 Noroeste 0 938.4 -- 30
2020-06-16 13:00:00 23.9 8 Oeste 37 Oeste 0 938.7 -- 32
2020-06-16 12:00:00 22.7 6 Sur 28 Oeste 0 938.9 -- 35
2020-06-16 11:00:00 21.3 9 Sudoeste 30 Oeste 0 939.3 -- 40
2020-06-16 10:00:00 19.6 13 Noroeste 30 Noroeste 0 939.8 -- 44
2020-06-16 09:00:00 18 17 Noroeste 30 Noroeste 0 939.8 -- 48
2020-06-16 08:00:00 15.4 12 Oeste 19 Oeste 0 939.8 -- 57
2020-06-16 07:00:00 13.1 12 Oeste 18 Noroeste 0 939.4 -- 62
2020-06-16 06:00:00 14.2 12 Oeste 19 Noroeste 0 939.1 -- 59
2020-06-16 05:00:00 15.1 12 Oeste 23 Oeste 0 939.1 -- 55
2020-06-16 04:00:00 16.3 13 Oeste 24 Oeste 0 939.1 -- 49
2020-06-16 03:00:00 17.4 15 Oeste 24 Oeste 0 939.6 -- 42
2020-06-16 02:00:00 18.2 13 Oeste 27 Oeste 0 939.7 -- 39
2020-06-16 01:00:00 18.6 11 Oeste 24 Oeste 0 939.8 -- 34
2020-06-16 00:00:00 19.8 13 Oeste 24 Oeste 0 940 -- 25
2020-06-15 23:00:00 21.1 10 Oeste 23 Oeste 0 940.3 -- 20
2020-06-15 22:00:00 22.5 12 Sudoeste 31 Sudoeste 0 939.9 -- 16
2020-06-15 21:00:00 24.7 12 Oeste 36 Oeste 0 939.8 -- 16
2020-06-15 20:00:00 26.2 15 Sudoeste 35 Oeste 0 939.3 -- 17
2020-06-15 19:00:00 27.4 17 Oeste 40 Oeste 0 939.3 -- 15
2020-06-15 18:00:00 27.6 16 Oeste 41 Sudoeste 0 939.4 -- 17
2020-06-15 17:00:00 27.6 20 Oeste 40 Sudoeste 0 940 -- 16
2020-06-15 16:00:00 26.9 17 Oeste 42 Sudoeste 0 940.3 -- 17
2020-06-15 15:00:00 26.3 21 Sudoeste 41 Sudoeste 0 940.6 -- 19
2020-06-15 14:00:00 25.5 21 Oeste 49 Sudoeste 0 941.2 -- 20
2020-06-15 13:00:00 24.2 17 Oeste 38 Sudoeste 0 941.5 -- 22
2020-06-15 12:00:00 22.7 17 Sudoeste 38 Oeste 0 941.7 -- 26
2020-06-15 11:00:00 21.2 18 Sudoeste 32 Sudoeste 0 941.6 -- 31
2020-06-15 10:00:00 19.7 11 Sudoeste 23 Sudoeste 0 941.8 -- 39
2020-06-15 09:00:00 17.9 12 Sudoeste 19 Sudoeste 0 941.8 -- 43
2020-06-15 08:00:00 15.1 10 Sudoeste 20 Oeste 0 941.6 -- 50
2020-06-15 07:00:00 13.1 10 Oeste 21 Oeste 0 941.2 -- 55
2020-06-15 06:00:00 12.7 13 Oeste 19 Oeste 0 940.8 -- 53
2020-06-15 05:00:00 13.7 8 Oeste 15 Sudoeste 0 940.7 -- 49
2020-06-15 04:00:00 13.3 6 Oeste 13 Sudoeste 0 940.7 -- 48
2020-06-15 03:00:00 14.8 9 Oeste 17 Sudoeste 0 940.7 -- 43
2020-06-15 02:00:00 16.1 12 Oeste 18 Oeste 0 940.8 -- 39
2020-06-15 01:00:00 15.8 13 Oeste 23 Oeste 0 940.8 -- 38
2020-06-15 00:00:00 17.1 13 Oeste 24 Oeste 0 940.7 -- 34
2020-06-14 23:00:00 20 13 Oeste 23 Sudoeste 0 940.3 -- 29
2020-06-14 22:00:00 22 13 Oeste 30 Sudoeste 0 939.6 -- 28
2020-06-14 21:00:00 24 17 Sudoeste 37 Sudoeste 0 939.1 -- 25
2020-06-14 20:00:00 25.5 15 Oeste 34 Sudoeste 0 938.8 -- 22
2020-06-14 19:00:00 26.1 15 Oeste 39 Noroeste 0 938.4 -- 21
2020-06-14 18:00:00 26 19 Oeste 38 Oeste 0 938.6 -- 21
2020-06-14 17:00:00 25.9 18 Oeste 37 Oeste 0 938.7 -- 22
2020-06-14 16:00:00 25.4 13 Oeste 41 Oeste 0 939.1 -- 22
2020-06-14 15:00:00 24.5 14 Sudoeste 38 Oeste 0 939.3 -- 24
2020-06-14 14:00:00 23.8 13 Oeste 32 Oeste 0 939.9 -- 26
2020-06-14 13:00:00 23.2 13 Oeste 44 Oeste 0 940.3 -- 27
2020-06-14 12:00:00 21.4 12 Oeste 30 Noroeste 0 940.3 -- 33
2020-06-14 11:00:00 20 14 Oeste 31 Norte 0 940.3 -- 37
2020-06-14 10:00:00 18.3 14 Noroeste 26 Noroeste 0 940.1 -- 43
2020-06-14 09:00:00 16.5 10 Noroeste 22 Oeste 0 939.7 -- 49
2020-06-14 08:00:00 12.3 8 Noroeste 14 Norte 0 939.2 -- 61
2020-06-14 07:00:00 11.3 9 Norte 13 Norte 0 939 -- 61
2020-06-14 06:00:00 11 7 Oeste 12 Oeste 0 938.6 -- 59
2020-06-14 05:00:00 10.4 6 Oeste 10 Norte 0 938.4 -- 61
2020-06-14 04:00:00 10.6 4 Sudoeste 12 Norte 0 938.5 -- 56
2020-06-14 03:00:00 12.4 6 Sudoeste 13 Oeste 0 938.5 -- 54
2020-06-14 02:00:00 12 8 Oeste 18 Oeste 0 938.5 -- 53
2020-06-14 01:00:00 13.3 7 Oeste 22 Oeste 0 938.5 -- 49
2020-06-14 00:00:00 14.5 9 Oeste 23 Oeste 0 938.4 -- 46
2020-06-13 23:00:00 16.9 12 Oeste 24 Oeste 0 938.1 -- 39
2020-06-13 22:00:00 19.1 15 Oeste 24 Oeste 0 937.5 -- 33
2020-06-13 21:00:00 21.3 15 Sudoeste 32 Sudoeste 0 937 -- 28
2020-06-13 20:00:00 22.7 15 Sudoeste 35 Sudoeste 0 936.5 -- 26
2020-06-13 19:00:00 23.4 15 Oeste 36 Oeste 0 936 -- 24
2020-06-13 18:00:00 22.8 10 Sudoeste 38 Oeste 0 936 -- 25
2020-06-13 17:00:00 22.8 16 Sudoeste 31 Sudoeste 0 935.8 -- 25
2020-06-13 16:00:00 22.1 11 Sudoeste 31 Sudoeste 0 936 -- 28
2020-06-13 15:00:00 22.2 13 Oeste 30 Noroeste 0 936.3 -- 29
2020-06-13 14:00:00 20.8 11 Sudoeste 30 Noroeste 0 936.6 -- 32
2020-06-13 13:00:00 18.8 11 Oeste 30 Norte 0 936.6 -- 37
2020-06-13 12:00:00 18 13 Noroeste 32 Noroeste 0 936.5 -- 41
2020-06-13 11:00:00 16.9 15 Noroeste 39 Oeste 0 936.1 -- 45
2020-06-13 10:00:00 15 17 Oeste 36 Oeste 0 935.8 -- 53
2020-06-13 09:00:00 13.1 13 Oeste 34 Oeste 0 935.4 -- 64
2020-06-13 08:00:00 10.8 10 Oeste 28 Oeste 0 934.6 -- 78
2020-06-13 07:00:00 9.7 10 Sudoeste 18 Oeste 0 934.1 -- 81
2020-06-13 06:00:00 9.9 11 Sudoeste 23 Sudoeste 0 933.9 -- 79
2020-06-13 05:00:00 9.9 8 Sudoeste 16 Sudoeste 0 933.6 -- 76
2020-06-13 04:00:00 10.1 10 Sudoeste 18 Sudoeste 0 933.1 -- 76
2020-06-13 03:00:00 10.6 8 Sudoeste 16 Oeste 0 933 -- 72
2020-06-13 02:00:00 11.7 6 Oeste 21 Oeste 0 933.1 -- 68
2020-06-13 01:00:00 12.7 14 Oeste 35 Oeste 0 932.8 -- 67
2020-06-13 00:00:00 13.1 14 Oeste 59 Sudoeste 0 932.6 -- 70
2020-06-12 23:00:00 15.6 30 Oeste 46 Oeste 0 931.7 -- 51
2020-06-12 22:00:00 17.3 19 Sudoeste 40 Sudoeste 0 930.4 -- 37
2020-06-12 21:00:00 18.2 21 Sudoeste 40 Oeste 0 929.9 -- 34
2020-06-12 20:00:00 18.7 21 Oeste 44 Oeste 0 929.4 -- 35
2020-06-12 19:00:00 19.2 24 Sudoeste 46 Oeste 0 929 -- 34
2020-06-12 18:00:00 19.4 22 Oeste 47 Oeste 0 928.8 -- 33
2020-06-12 17:00:00 18.8 26 Sudoeste 54 Oeste 0 929 -- 33
2020-06-12 16:00:00 19.1 24 Sudoeste 57 Oeste 0 929 -- 32
2020-06-12 15:00:00 18.7 24 Sudoeste 42 Sudoeste 0 928.9 -- 34
2020-06-12 14:00:00 18.4 21 Oeste 51 Sudoeste 0 928.9 -- 35
2020-06-12 13:00:00 18.1 22 Sudoeste 40 Oeste 0 928.9 -- 37
2020-06-12 12:00:00 16.2 18 Sudoeste 42 Sudoeste 0 928.9 -- 41
2020-06-12 11:00:00 15.2 21 Oeste 43 Oeste 0 929 -- 44
2020-06-12 10:00:00 13.5 24 Oeste 40 Sudoeste 0 928.9 -- 48
2020-06-12 09:00:00 11.9 17 Oeste 37 Oeste 0 928.8 -- 55
2020-06-12 08:00:00 11 15 Oeste 37 Oeste 0 928.5 -- 59
2020-06-12 07:00:00 10.3 16 Oeste 39 Sudoeste 0 928.1 -- 60
2020-06-12 06:00:00 11 19 Sudoeste 41 Oeste 0 927.8 -- 58
2020-06-12 05:00:00 11.9 22 Oeste 37 Oeste 0 927.5 -- 56
2020-06-12 04:00:00 12.9 20 Oeste 43 Sudoeste 0 927.3 -- 55
2020-06-12 03:00:00 13.7 22 Oeste 47 Sudoeste 0 927.3 -- 57
2020-06-12 02:00:00 14.5 29 Oeste 58 Oeste 0 927.4 -- 53
2020-06-12 01:00:00 15.8 33 Oeste 61 Oeste 0 927.4 -- 54
2020-06-12 00:00:00 17 26 Oeste 52 Oeste 0 927.3 -- 58
2020-06-11 23:00:00 18.2 28 Sudoeste 54 Sudoeste 0 927.3 -- 49
2020-06-11 22:00:00 19 28 Sudoeste 59 Sudoeste 0 926.8 -- 44
2020-06-11 21:00:00 20.8 35 Oeste 61 Oeste 0 926.6 -- 33
2020-06-11 20:00:00 22.1 32 Sudoeste 57 Sudoeste 0 926.5 -- 37
2020-06-11 19:00:00 23 37 Oeste 69 Oeste 0 926.7 -- 32
2020-06-11 18:00:00 23.8 32 Oeste 66 Sudoeste 0 926.8 -- 28
2020-06-11 17:00:00 25 33 Oeste 58 Sudoeste 0 927.1 -- 25
2020-06-11 16:00:00 24.7 31 Oeste 62 Oeste 0 927.8 -- 25
2020-06-11 15:00:00 24.7 30 Sudoeste 60 Sudoeste 0 928.5 -- 27
2020-06-11 14:00:00 24 33 Oeste 54 Oeste 0 929 -- 29
2020-06-11 13:00:00 23.2 26 Sudoeste 57 Sudoeste 0 929.4 -- 25
2020-06-11 12:00:00 21.6 26 Sudoeste 49 Sudoeste 0 929.8 -- 23
2020-06-11 11:00:00 20 25 Sudoeste 50 Sudoeste 0 930.2 -- 27
2020-06-11 10:00:00 18.2 26 Sudoeste 45 Sudoeste 0 930.7 -- 29
2020-06-11 09:00:00 16.5 24 Sudoeste 39 Sudoeste 0 931.2 -- 40
2020-06-11 08:00:00 15.7 15 Sudoeste 30 Sudoeste 0 931.6 -- 54
2020-06-11 07:00:00 14.2 10 Sudoeste 22 Oeste 0 932 -- 52
2020-06-11 06:00:00 15.2 14 Sudoeste 27 Sudoeste 0 931.9 -- 44
2020-06-11 05:00:00 15.6 13 Sudoeste 26 Sudoeste 0 932.3 -- 38
2020-06-11 04:00:00 16 14 Sudoeste 27 Sudoeste 0 932.6 -- 35
2020-06-11 03:00:00 16.9 13 Sudoeste 23 Sudoeste 0 933.1 -- 33
2020-06-11 02:00:00 17.4 12 Sudoeste 22 Oeste 0 933.5 -- 33
2020-06-11 01:00:00 17.3 9 Oeste 23 Oeste 0 933.8 -- 34
2020-06-11 00:00:00 18.4 6 Noroeste 29 Oeste 0 933.8 -- 34
2020-06-10 23:00:00 21.3 14 Oeste 29 Oeste 0 933.7 -- 29
2020-06-10 22:00:00 23.4 14 Sudoeste 33 Oeste 0 933.4 -- 24
2020-06-10 21:00:00 24.7 12 Oeste 37 Sudoeste 0 933.2 -- 20
2020-06-10 20:00:00 25.9 17 Oeste 40 Oeste 0 933.3 -- 17
2020-06-10 19:00:00 26.4 21 Oeste 39 Oeste 0 933.4 -- 16
2020-06-10 18:00:00 27.4 17 Oeste 42 Oeste 0 933.6 -- 17
2020-06-10 17:00:00 26.9 13 Sudoeste 38 Oeste 0 934.2 -- 18
2020-06-10 16:00:00 26 12 Noroeste 41 Noroeste 0 934.7 -- 20
2020-06-10 15:00:00 25 8 Oeste 36 Oeste 0 935.5 -- 21
2020-06-10 14:00:00 24.2 13 Oeste 33 Noroeste 0 936.4 -- 22
2020-06-10 13:00:00 22.1 9 Noroeste 28 Noroeste 0 937 -- 25
2020-06-10 12:00:00 21.1 10 Norte 23 Norte 0 937.2 -- 27
2020-06-10 11:00:00 19.7 7 Sudeste 19 Sur 0 937.3 -- 31
2020-06-10 10:00:00 16.8 6 Norte 18 Norte 0 938 -- 44
2020-06-10 09:00:00 14.2 7 Noroeste 15 Noroeste 0 938.1 -- 48
2020-06-10 08:00:00 9.8 4 Noroeste 13 Norte 0 937.9 -- 60
2020-06-10 07:00:00 8.9 4 Noroeste 12 Norte 0 937.6 -- 60
2020-06-10 06:00:00 9 5 Noroeste 12 Norte 0 937.4 -- 58
2020-06-10 05:00:00 9.4 8 Oeste 22 Sudoeste 0 937.4 -- 56
2020-06-10 04:00:00 10 6 Oeste 17 Nordeste 0 937.6 -- 55
2020-06-10 03:00:00 12 4 Noroeste 20 Norte 0 937.7 -- 48
2020-06-10 02:00:00 14.1 6 Norte 24 Norte 0 937.7 -- 44
2020-06-10 01:00:00 15.4 12 Norte 29 Norte 0 937.7 -- 39
2020-06-10 00:00:00 16.1 6 Nordeste 24 Norte 0 937.4 -- 34